sensor_id;sensor_type;location;lat;lon;timestamp;P1;durP1;ratioP1;P2;durP2;ratioP2
71104;SDS011;58760;48.716;8.962;2023-12-20T00:00:23;2.35;;;1.10;;
71104;SDS011;58760;48.716;8.962;2023-12-20T00:02:48;2.78;;;1.27;;
71104;SDS011;58760;48.716;8.962;2023-12-20T00:05:14;3.45;;;1.48;;
71104;SDS011;58760;48.716;8.962;2023-12-20T00:07:39;3.88;;;1.30;;
71104;SDS011;58760;48.716;8.962;2023-12-20T00:10:05;1.98;;;1.10;;
71104;SDS011;58760;48.716;8.962;2023-12-20T00:12:30;2.88;;;1.20;;
71104;SDS011;58760;48.716;8.962;2023-12-20T00:14:56;2.10;;;1.02;;
71104;SDS011;58760;48.716;8.962;2023-12-20T00:17:22;3.22;;;1.30;;
71104;SDS011;58760;48.716;8.962;2023-12-20T00:19:47;2.38;;;1.10;;
71104;SDS011;58760;48.716;8.962;2023-12-20T00:22:12;1.75;;;0.98;;
71104;SDS011;58760;48.716;8.962;2023-12-20T00:24:38;2.75;;;1.00;;
71104;SDS011;58760;48.716;8.962;2023-12-20T00:27:03;2.40;;;1.02;;
71104;SDS011;58760;48.716;8.962;2023-12-20T00:29:29;4.88;;;0.95;;
71104;SDS011;58760;48.716;8.962;2023-12-20T00:31:54;2.60;;;1.10;;
71104;SDS011;58760;48.716;8.962;2023-12-20T00:34:19;2.22;;;0.98;;
71104;SDS011;58760;48.716;8.962;2023-12-20T00:36:45;2.28;;;1.08;;
71104;SDS011;58760;48.716;8.962;2023-12-20T00:39:10;1.88;;;1.00;;
71104;SDS011;58760;48.716;8.962;2023-12-20T00:41:35;2.33;;;1.23;;
71104;SDS011;58760;48.716;8.962;2023-12-20T00:44:01;3.30;;;1.30;;
71104;SDS011;58760;48.716;8.962;2023-12-20T00:46:26;2.80;;;1.20;;
71104;SDS011;58760;48.716;8.962;2023-12-20T00:48:51;2.15;;;1.00;;
71104;SDS011;58760;48.716;8.962;2023-12-20T00:51:17;3.25;;;1.00;;
71104;SDS011;58760;48.716;8.962;2023-12-20T00:53:42;2.75;;;1.00;;
71104;SDS011;58760;48.716;8.962;2023-12-20T00:56:08;2.63;;;1.10;;
71104;SDS011;58760;48.716;8.962;2023-12-20T00:58:33;4.15;;;1.25;;
71104;SDS011;58760;48.716;8.962;2023-12-20T01:00:59;3.60;;;1.10;;
71104;SDS011;58760;48.716;8.962;2023-12-20T01:03:24;1.88;;;1.08;;
71104;SDS011;58760;48.716;8.962;2023-12-20T01:05:49;5.88;;;1.50;;
71104;SDS011;58760;48.716;8.962;2023-12-20T01:08:15;2.83;;;1.00;;
71104;SDS011;58760;48.716;8.962;2023-12-20T01:10:40;2.53;;;1.15;;
71104;SDS011;58760;48.716;8.962;2023-12-20T01:13:06;3.13;;;1.10;;
71104;SDS011;58760;48.716;8.962;2023-12-20T01:15:31;2.10;;;0.98;;
71104;SDS011;58760;48.716;8.962;2023-12-20T01:17:56;2.83;;;1.30;;
71104;SDS011;58760;48.716;8.962;2023-12-20T01:20:24;2.83;;;1.00;;
71104;SDS011;58760;48.716;8.962;2023-12-20T01:22:49;1.95;;;0.85;;
71104;SDS011;58760;48.716;8.962;2023-12-20T01:25:14;2.65;;;1.10;;
71104;SDS011;58760;48.716;8.962;2023-12-20T01:27:40;3.28;;;1.00;;
71104;SDS011;58760;48.716;8.962;2023-12-20T01:30:05;2.72;;;1.00;;
71104;SDS011;58760;48.716;8.962;2023-12-20T01:32:31;1.05;;;0.73;;
71104;SDS011;58760;48.716;8.962;2023-12-20T01:34:56;1.45;;;0.82;;
71104;SDS011;58760;48.716;8.962;2023-12-20T01:37:22;1.92;;;0.88;;
71104;SDS011;58760;48.716;8.962;2023-12-20T01:39:48;2.42;;;0.88;;
71104;SDS011;58760;48.716;8.962;2023-12-20T01:42:14;2.25;;;0.90;;
71104;SDS011;58760;48.716;8.962;2023-12-20T01:44:39;2.38;;;0.77;;
71104;SDS011;58760;48.716;8.962;2023-12-20T01:47:04;0.95;;;0.60;;
71104;SDS011;58760;48.716;8.962;2023-12-20T01:49:30;1.98;;;0.80;;
71104;SDS011;58760;48.716;8.962;2023-12-20T01:51:56;1.98;;;0.85;;
71104;SDS011;58760;48.716;8.962;2023-12-20T01:54:21;1.13;;;0.60;;
71104;SDS011;58760;48.716;8.962;2023-12-20T01:56:48;0.90;;;0.60;;
71104;SDS011;58760;48.716;8.962;2023-12-20T02:01:42;0.50;;;0.40;;
71104;SDS011;58760;48.716;8.962;2023-12-20T02:04:07;0.82;;;0.40;;
71104;SDS011;58760;48.716;8.962;2023-12-20T02:06:33;0.30;;;0.30;;
71104;SDS011;58760;48.716;8.962;2023-12-20T02:08:59;0.85;;;0.40;;
71104;SDS011;58760;48.716;8.962;2023-12-20T02:11:25;0.85;;;0.60;;
71104;SDS011;58760;48.716;8.962;2023-12-20T02:13:51;0.95;;;0.40;;
71104;SDS011;58760;48.716;8.962;2023-12-20T02:16:17;0.50;;;0.40;;
71104;SDS011;58760;48.716;8.962;2023-12-20T02:18:42;0.35;;;0.30;;
71104;SDS011;58760;48.716;8.962;2023-12-20T02:23:35;0.90;;;0.25;;
71104;SDS011;58760;48.716;8.962;2023-12-20T02:26:00;1.15;;;0.40;;
71104;SDS011;58760;48.716;8.962;2023-12-20T02:28:26;0.20;;;0.20;;
71104;SDS011;58760;48.716;8.962;2023-12-20T02:30:51;0.30;;;0.20;;
71104;SDS011;58760;48.716;8.962;2023-12-20T02:33:17;2.65;;;0.45;;
71104;SDS011;58760;48.716;8.962;2023-12-20T02:35:42;0.65;;;0.30;;
71104;SDS011;58760;48.716;8.962;2023-12-20T02:38:08;0.22;;;0.20;;
71104;SDS011;58760;48.716;8.962;2023-12-20T02:40:33;0.10;;;0.10;;
71104;SDS011;58760;48.716;8.962;2023-12-20T02:42:58;0.20;;;0.10;;
71104;SDS011;58760;48.716;8.962;2023-12-20T02:45:24;0.32;;;0.20;;
71104;SDS011;58760;48.716;8.962;2023-12-20T02:47:49;0.28;;;0.13;;
71104;SDS011;58760;48.716;8.962;2023-12-20T02:50:15;0.75;;;0.30;;
71104;SDS011;58760;48.716;8.962;2023-12-20T02:52:42;0.35;;;0.10;;
71104;SDS011;58760;48.716;8.962;2023-12-20T02:55:09;1.27;;;0.30;;
71104;SDS011;58760;48.716;8.962;2023-12-20T02:57:35;0.50;;;0.30;;
71104;SDS011;58760;48.716;8.962;2023-12-20T03:00:01;0.10;;;0.08;;
71104;SDS011;58760;48.716;8.962;2023-12-20T03:02:26;0.95;;;0.20;;
71104;SDS011;58760;48.716;8.962;2023-12-20T03:04:52;1.95;;;0.22;;
71104;SDS011;58760;48.716;8.962;2023-12-20T03:07:17;0.28;;;0.20;;
71104;SDS011;58760;48.716;8.962;2023-12-20T03:09:43;0.50;;;0.30;;
71104;SDS011;58760;48.716;8.962;2023-12-20T03:12:08;0.10;;;0.10;;
71104;SDS011;58760;48.716;8.962;2023-12-20T03:14:33;0.10;;;0.10;;
71104;SDS011;58760;48.716;8.962;2023-12-20T03:16:59;0.00;;;0.00;;
71104;SDS011;58760;48.716;8.962;2023-12-20T03:19:24;0.30;;;0.10;;
71104;SDS011;58760;48.716;8.962;2023-12-20T03:21:50;0.10;;;0.08;;
71104;SDS011;58760;48.716;8.962;2023-12-20T03:24:15;0.05;;;0.05;;
71104;SDS011;58760;48.716;8.962;2023-12-20T03:26:40;0.52;;;0.10;;
71104;SDS011;58760;48.716;8.962;2023-12-20T03:29:06;0.10;;;0.10;;
71104;SDS011;58760;48.716;8.962;2023-12-20T03:31:31;0.10;;;0.10;;
71104;SDS011;58760;48.716;8.962;2023-12-20T03:33:56;0.00;;;0.00;;
71104;SDS011;58760;48.716;8.962;2023-12-20T03:36:22;0.05;;;0.00;;
71104;SDS011;58760;48.716;8.962;2023-12-20T03:38:47;0.20;;;0.10;;
71104;SDS011;58760;48.716;8.962;2023-12-20T03:41:13;1.75;;;0.28;;
71104;SDS011;58760;48.716;8.962;2023-12-20T03:43:38;0.35;;;0.10;;
71104;SDS011;58760;48.716;8.962;2023-12-20T03:46:03;1.10;;;0.10;;
71104;SDS011;58760;48.716;8.962;2023-12-20T03:48:29;0.20;;;0.10;;
71104;SDS011;58760;48.716;8.962;2023-12-20T03:50:56;0.00;;;0.00;;
71104;SDS011;58760;48.716;8.962;2023-12-20T03:53:22;0.52;;;0.10;;
71104;SDS011;58760;48.716;8.962;2023-12-20T03:55:47;0.75;;;0.10;;
71104;SDS011;58760;48.716;8.962;2023-12-20T03:58:13;0.25;;;0.10;;
71104;SDS011;58760;48.716;8.962;2023-12-20T04:00:38;1.27;;;0.10;;
71104;SDS011;58760;48.716;8.962;2023-12-20T04:03:04;0.08;;;0.03;;
71104;SDS011;58760;48.716;8.962;2023-12-20T04:05:29;0.03;;;0.00;;
71104;SDS011;58760;48.716;8.962;2023-12-20T04:07:54;1.17;;;0.10;;
71104;SDS011;58760;48.716;8.962;2023-12-20T04:10:20;0.47;;;0.08;;
71104;SDS011;58760;48.716;8.962;2023-12-20T04:12:45;0.00;;;0.00;;
71104;SDS011;58760;48.716;8.962;2023-12-20T04:15:11;0.00;;;0.00;;
71104;SDS011;58760;48.716;8.962;2023-12-20T04:17:37;0.00;;;0.00;;
71104;SDS011;58760;48.716;8.962;2023-12-20T04:20:02;0.25;;;0.10;;
71104;SDS011;58760;48.716;8.962;2023-12-20T04:22:28;0.73;;;0.10;;
71104;SDS011;58760;48.716;8.962;2023-12-20T04:24:53;0.10;;;0.10;;
71104;SDS011;58760;48.716;8.962;2023-12-20T04:27:19;0.00;;;0.00;;
71104;SDS011;58760;48.716;8.962;2023-12-20T04:29:44;0.03;;;0.03;;
71104;SDS011;58760;48.716;8.962;2023-12-20T04:32:10;0.28;;;0.05;;
71104;SDS011;58760;48.716;8.962;2023-12-20T04:34:35;0.00;;;0.00;;
71104;SDS011;58760;48.716;8.962;2023-12-20T04:37:01;0.10;;;0.10;;
71104;SDS011;58760;48.716;8.962;2023-12-20T04:39:26;0.60;;;0.20;;
71104;SDS011;58760;48.716;8.962;2023-12-20T04:41:52;0.00;;;0.00;;
71104;SDS011;58760;48.716;8.962;2023-12-20T04:44:17;0.40;;;0.20;;
71104;SDS011;58760;48.716;8.962;2023-12-20T04:46:43;0.17;;;0.10;;
71104;SDS011;58760;48.716;8.962;2023-12-20T04:49:08;0.25;;;0.20;;
71104;SDS011;58760;48.716;8.962;2023-12-20T04:51:33;0.50;;;0.08;;
71104;SDS011;58760;48.716;8.962;2023-12-20T04:53:59;0.52;;;0.05;;
71104;SDS011;58760;48.716;8.962;2023-12-20T04:56:25;0.90;;;0.50;;
71104;SDS011;58760;48.716;8.962;2023-12-20T04:58:51;0.77;;;0.10;;
71104;SDS011;58760;48.716;8.962;2023-12-20T05:01:16;0.90;;;0.10;;
71104;SDS011;58760;48.716;8.962;2023-12-20T05:03:42;0.32;;;0.10;;
71104;SDS011;58760;48.716;8.962;2023-12-20T05:06:07;0.38;;;0.20;;
71104;SDS011;58760;48.716;8.962;2023-12-20T05:08:33;0.15;;;0.15;;
71104;SDS011;58760;48.716;8.962;2023-12-20T05:10:58;0.55;;;0.30;;
71104;SDS011;58760;48.716;8.962;2023-12-20T05:13:24;2.30;;;0.50;;
71104;SDS011;58760;48.716;8.962;2023-12-20T05:15:50;0.77;;;0.30;;
71104;SDS011;58760;48.716;8.962;2023-12-20T05:18:15;1.70;;;0.30;;
71104;SDS011;58760;48.716;8.962;2023-12-20T05:20:41;0.25;;;0.25;;
71104;SDS011;58760;48.716;8.962;2023-12-20T05:23:06;0.10;;;0.10;;
71104;SDS011;58760;48.716;8.962;2023-12-20T05:25:32;1.45;;;0.25;;
71104;SDS011;58760;48.716;8.962;2023-12-20T05:27:57;0.35;;;0.13;;
71104;SDS011;58760;48.716;8.962;2023-12-20T05:30:22;0.08;;;0.00;;
71104;SDS011;58760;48.716;8.962;2023-12-20T05:32:48;1.52;;;0.20;;
71104;SDS011;58760;48.716;8.962;2023-12-20T05:35:13;0.55;;;0.20;;
71104;SDS011;58760;48.716;8.962;2023-12-20T05:37:40;3.80;;;0.13;;
71104;SDS011;58760;48.716;8.962;2023-12-20T05:40:06;2.08;;;0.45;;
71104;SDS011;58760;48.716;8.962;2023-12-20T05:42:35;0.80;;;0.35;;
71104;SDS011;58760;48.716;8.962;2023-12-20T05:45:00;1.52;;;0.20;;
71104;SDS011;58760;48.716;8.962;2023-12-20T05:47:25;1.63;;;0.20;;
71104;SDS011;58760;48.716;8.962;2023-12-20T05:49:51;1.38;;;0.30;;
71104;SDS011;58760;48.716;8.962;2023-12-20T05:52:16;0.25;;;0.25;;
71104;SDS011;58760;48.716;8.962;2023-12-20T05:54:42;1.05;;;0.40;;
71104;SDS011;58760;48.716;8.962;2023-12-20T05:57:07;0.50;;;0.20;;
71104;SDS011;58760;48.716;8.962;2023-12-20T05:59:33;1.30;;;0.32;;
71104;SDS011;58760;48.716;8.962;2023-12-20T06:01:58;0.10;;;0.10;;
71104;SDS011;58760;48.716;8.962;2023-12-20T06:04:24;1.80;;;0.30;;
71104;SDS011;58760;48.716;8.962;2023-12-20T06:06:49;0.80;;;0.40;;
71104;SDS011;58760;48.716;8.962;2023-12-20T06:09:14;2.28;;;0.40;;
71104;SDS011;58760;48.716;8.962;2023-12-20T06:11:40;1.90;;;0.80;;
71104;SDS011;58760;48.716;8.962;2023-12-20T06:14:05;2.17;;;0.43;;
71104;SDS011;58760;48.716;8.962;2023-12-20T06:16:31;1.15;;;0.60;;
71104;SDS011;58760;48.716;8.962;2023-12-20T06:18:57;0.68;;;0.38;;
71104;SDS011;58760;48.716;8.962;2023-12-20T06:21:22;0.93;;;0.40;;
71104;SDS011;58760;48.716;8.962;2023-12-20T06:23:47;1.73;;;0.60;;
71104;SDS011;58760;48.716;8.962;2023-12-20T06:26:13;0.30;;;0.30;;
71104;SDS011;58760;48.716;8.962;2023-12-20T06:28:38;2.88;;;0.30;;
71104;SDS011;58760;48.716;8.962;2023-12-20T06:31:03;0.93;;;0.30;;
71104;SDS011;58760;48.716;8.962;2023-12-20T06:33:29;1.20;;;0.30;;
71104;SDS011;58760;48.716;8.962;2023-12-20T06:38:21;4.32;;;0.50;;
71104;SDS011;58760;48.716;8.962;2023-12-20T06:40:46;0.77;;;0.50;;
71104;SDS011;58760;48.716;8.962;2023-12-20T06:43:12;1.08;;;0.40;;
71104;SDS011;58760;48.716;8.962;2023-12-20T06:45:38;0.57;;;0.40;;
71104;SDS011;58760;48.716;8.962;2023-12-20T06:48:04;0.52;;;0.50;;
71104;SDS011;58760;48.716;8.962;2023-12-20T06:50:30;3.13;;;1.23;;
71104;SDS011;58760;48.716;8.962;2023-12-20T06:52:55;1.42;;;0.40;;
71104;SDS011;58760;48.716;8.962;2023-12-20T06:55:20;1.35;;;0.40;;
71104;SDS011;58760;48.716;8.962;2023-12-20T06:57:46;1.50;;;0.32;;
71104;SDS011;58760;48.716;8.962;2023-12-20T07:00:11;0.17;;;0.17;;
71104;SDS011;58760;48.716;8.962;2023-12-20T07:02:37;0.52;;;0.20;;
71104;SDS011;58760;48.716;8.962;2023-12-20T07:05:03;0.52;;;0.20;;
71104;SDS011;58760;48.716;8.962;2023-12-20T07:07:29;1.92;;;0.60;;
71104;SDS011;58760;48.716;8.962;2023-12-20T07:09:55;1.90;;;0.43;;
71104;SDS011;58760;48.716;8.962;2023-12-20T07:12:20;0.35;;;0.10;;
71104;SDS011;58760;48.716;8.962;2023-12-20T07:14:46;1.30;;;0.30;;
71104;SDS011;58760;48.716;8.962;2023-12-20T07:17:11;0.35;;;0.20;;
71104;SDS011;58760;48.716;8.962;2023-12-20T07:19:38;1.92;;;0.60;;
71104;SDS011;58760;48.716;8.962;2023-12-20T07:22:05;1.35;;;0.70;;
71104;SDS011;58760;48.716;8.962;2023-12-20T07:24:32;1.25;;;0.60;;
71104;SDS011;58760;48.716;8.962;2023-12-20T07:26:57;1.50;;;0.68;;
71104;SDS011;58760;48.716;8.962;2023-12-20T07:31:49;2.50;;;1.10;;
71104;SDS011;58760;48.716;8.962;2023-12-20T07:34:17;2.85;;;1.13;;
71104;SDS011;58760;48.716;8.962;2023-12-20T07:36:42;3.17;;;1.58;;
71104;SDS011;58760;48.716;8.962;2023-12-20T07:39:07;3.78;;;1.33;;
71104;SDS011;58760;48.716;8.962;2023-12-20T07:41:33;4.93;;;1.60;;
71104;SDS011;58760;48.716;8.962;2023-12-20T07:43:58;3.95;;;1.92;;
71104;SDS011;58760;48.716;8.962;2023-12-20T07:46:24;4.68;;;2.33;;
71104;SDS011;58760;48.716;8.962;2023-12-20T07:48:49;4.50;;;2.38;;
71104;SDS011;58760;48.716;8.962;2023-12-20T07:51:15;5.47;;;2.63;;
71104;SDS011;58760;48.716;8.962;2023-12-20T07:53:41;6.10;;;3.22;;
71104;SDS011;58760;48.716;8.962;2023-12-20T07:56:16;6.57;;;3.47;;
71104;SDS011;58760;48.716;8.962;2023-12-20T07:58:42;7.78;;;3.45;;
71104;SDS011;58760;48.716;8.962;2023-12-20T08:01:07;5.65;;;3.33;;
71104;SDS011;58760;48.716;8.962;2023-12-20T08:03:33;7.57;;;3.55;;
71104;SDS011;58760;48.716;8.962;2023-12-20T08:05:58;7.20;;;4.00;;
71104;SDS011;58760;48.716;8.962;2023-12-20T08:08:24;7.10;;;3.53;;
71104;SDS011;58760;48.716;8.962;2023-12-20T08:10:50;5.95;;;3.05;;
71104;SDS011;58760;48.716;8.962;2023-12-20T08:13:15;7.63;;;3.33;;
71104;SDS011;58760;48.716;8.962;2023-12-20T08:15:41;9.07;;;3.22;;
71104;SDS011;58760;48.716;8.962;2023-12-20T08:18:06;6.57;;;2.70;;
71104;SDS011;58760;48.716;8.962;2023-12-20T08:20:32;4.65;;;2.50;;
71104;SDS011;58760;48.716;8.962;2023-12-20T08:22:57;5.90;;;2.58;;
71104;SDS011;58760;48.716;8.962;2023-12-20T08:25:22;6.28;;;2.47;;
71104;SDS011;58760;48.716;8.962;2023-12-20T08:27:48;5.43;;;2.67;;
71104;SDS011;58760;48.716;8.962;2023-12-20T08:30:13;6.47;;;2.65;;
71104;SDS011;58760;48.716;8.962;2023-12-20T08:32:38;5.22;;;2.40;;
71104;SDS011;58760;48.716;8.962;2023-12-20T08:35:04;5.80;;;2.53;;
71104;SDS011;58760;48.716;8.962;2023-12-20T08:37:29;7.45;;;3.10;;
71104;SDS011;58760;48.716;8.962;2023-12-20T08:39:55;6.65;;;2.80;;
71104;SDS011;58760;48.716;8.962;2023-12-20T08:42:21;5.05;;;1.80;;
71104;SDS011;58760;48.716;8.962;2023-12-20T08:44:46;6.53;;;1.90;;
71104;SDS011;58760;48.716;8.962;2023-12-20T08:47:11;5.05;;;1.42;;
71104;SDS011;58760;48.716;8.962;2023-12-20T08:49:38;4.40;;;1.58;;
71104;SDS011;58760;48.716;8.962;2023-12-20T08:52:04;4.00;;;1.80;;
71104;SDS011;58760;48.716;8.962;2023-12-20T08:54:30;6.28;;;1.58;;
71104;SDS011;58760;48.716;8.962;2023-12-20T08:56:56;5.50;;;1.70;;
71104;SDS011;58760;48.716;8.962;2023-12-20T08:59:22;6.25;;;1.60;;
71104;SDS011;58760;48.716;8.962;2023-12-20T09:01:47;3.80;;;1.60;;
71104;SDS011;58760;48.716;8.962;2023-12-20T09:04:13;3.92;;;1.40;;
71104;SDS011;58760;48.716;8.962;2023-12-20T09:06:38;4.85;;;1.48;;
71104;SDS011;58760;48.716;8.962;2023-12-20T09:09:04;6.68;;;1.85;;
71104;SDS011;58760;48.716;8.962;2023-12-20T09:11:29;5.07;;;2.03;;
71104;SDS011;58760;48.716;8.962;2023-12-20T09:13:55;5.07;;;1.45;;
71104;SDS011;58760;48.716;8.962;2023-12-20T09:16:20;5.80;;;1.33;;
71104;SDS011;58760;48.716;8.962;2023-12-20T09:18:45;4.03;;;1.45;;
71104;SDS011;58760;48.716;8.962;2023-12-20T09:21:11;3.45;;;1.33;;
71104;SDS011;58760;48.716;8.962;2023-12-20T09:23:37;10.68;;;1.65;;
71104;SDS011;58760;48.716;8.962;2023-12-20T09:26:03;4.60;;;1.27;;
71104;SDS011;58760;48.716;8.962;2023-12-20T09:28:29;4.70;;;1.63;;
71104;SDS011;58760;48.716;8.962;2023-12-20T09:30:54;4.25;;;1.30;;
71104;SDS011;58760;48.716;8.962;2023-12-20T09:33:20;5.38;;;1.30;;
71104;SDS011;58760;48.716;8.962;2023-12-20T09:35:45;4.63;;;1.13;;
71104;SDS011;58760;48.716;8.962;2023-12-20T09:38:11;11.32;;;1.63;;
71104;SDS011;58760;48.716;8.962;2023-12-20T09:40:37;5.18;;;1.00;;
71104;SDS011;58760;48.716;8.962;2023-12-20T09:43:10;5.82;;;0.95;;
71104;SDS011;58760;48.716;8.962;2023-12-20T09:45:38;5.65;;;1.27;;
71104;SDS011;58760;48.716;8.962;2023-12-20T09:48:05;4.30;;;1.10;;
71104;SDS011;58760;48.716;8.962;2023-12-20T09:50:32;7.10;;;1.30;;
71104;SDS011;58760;48.716;8.962;2023-12-20T09:52:58;8.10;;;1.23;;
71104;SDS011;58760;48.716;8.962;2023-12-20T09:55:26;7.03;;;1.40;;
71104;SDS011;58760;48.716;8.962;2023-12-20T09:57:55;2.80;;;0.88;;
71104;SDS011;58760;48.716;8.962;2023-12-20T10:00:20;7.30;;;2.35;;
71104;SDS011;58760;48.716;8.962;2023-12-20T10:05:28;4.88;;;1.25;;
71104;SDS011;58760;48.716;8.962;2023-12-20T10:07:55;7.85;;;1.17;;
71104;SDS011;58760;48.716;8.962;2023-12-20T10:10:20;5.07;;;1.00;;
71104;SDS011;58760;48.716;8.962;2023-12-20T10:15:34;6.15;;;1.13;;
71104;SDS011;58760;48.716;8.962;2023-12-20T10:18:01;3.83;;;1.08;;
71104;SDS011;58760;48.716;8.962;2023-12-20T10:20:27;4.78;;;0.93;;
71104;SDS011;58760;48.716;8.962;2023-12-20T10:25:20;4.53;;;0.90;;
71104;SDS011;58760;48.716;8.962;2023-12-20T10:27:46;5.07;;;1.20;;
71104;SDS011;58760;48.716;8.962;2023-12-20T10:30:11;5.95;;;1.33;;
71104;SDS011;58760;48.716;8.962;2023-12-20T10:32:37;5.47;;;1.20;;
71104;SDS011;58760;48.716;8.962;2023-12-20T10:35:03;5.57;;;1.20;;
71104;SDS011;58760;48.716;8.962;2023-12-20T10:37:29;5.30;;;1.13;;
71104;SDS011;58760;48.716;8.962;2023-12-20T10:39:54;8.13;;;1.27;;
71104;SDS011;58760;48.716;8.962;2023-12-20T10:42:24;4.45;;;0.90;;
71104;SDS011;58760;48.716;8.962;2023-12-20T10:44:52;7.07;;;1.20;;
71104;SDS011;58760;48.716;8.962;2023-12-20T10:47:19;3.03;;;0.90;;
71104;SDS011;58760;48.716;8.962;2023-12-20T10:49:46;3.78;;;0.90;;
71104;SDS011;58760;48.716;8.962;2023-12-20T10:52:12;3.88;;;1.13;;
71104;SDS011;58760;48.716;8.962;2023-12-20T10:54:38;4.78;;;1.20;;
71104;SDS011;58760;48.716;8.962;2023-12-20T10:57:05;7.47;;;1.13;;
71104;SDS011;58760;48.716;8.962;2023-12-20T10:59:31;5.57;;;1.02;;
71104;SDS011;58760;48.716;8.962;2023-12-20T11:02:00;5.20;;;1.00;;
71104;SDS011;58760;48.716;8.962;2023-12-20T11:04:31;4.53;;;1.05;;
71104;SDS011;58760;48.716;8.962;2023-12-20T11:07:17;5.97;;;1.23;;
71104;SDS011;58760;48.716;8.962;2023-12-20T11:09:55;7.85;;;1.30;;
71104;SDS011;58760;48.716;8.962;2023-12-20T11:12:47;6.82;;;1.42;;
71104;SDS011;58760;48.716;8.962;2023-12-20T11:15:27;5.43;;;1.10;;
71104;SDS011;58760;48.716;8.962;2023-12-20T11:17:57;5.55;;;1.40;;
71104;SDS011;58760;48.716;8.962;2023-12-20T11:20:24;5.95;;;1.10;;
71104;SDS011;58760;48.716;8.962;2023-12-20T11:23:00;5.82;;;1.30;;
71104;SDS011;58760;48.716;8.962;2023-12-20T11:25:25;5.00;;;1.05;;
71104;SDS011;58760;48.716;8.962;2023-12-20T11:28:07;5.45;;;1.25;;
71104;SDS011;58760;48.716;8.962;2023-12-20T11:30:42;3.67;;;1.08;;
71104;SDS011;58760;48.716;8.962;2023-12-20T11:33:21;5.90;;;1.00;;
71104;SDS011;58760;48.716;8.962;2023-12-20T11:35:47;6.03;;;1.17;;
71104;SDS011;58760;48.716;8.962;2023-12-20T11:38:13;6.47;;;1.40;;
71104;SDS011;58760;48.716;8.962;2023-12-20T11:40:39;4.20;;;0.90;;
71104;SDS011;58760;48.716;8.962;2023-12-20T11:43:06;4.28;;;0.85;;
71104;SDS011;58760;48.716;8.962;2023-12-20T11:45:31;9.85;;;1.50;;
71104;SDS011;58760;48.716;8.962;2023-12-20T11:47:57;7.90;;;1.65;;
71104;SDS011;58760;48.716;8.962;2023-12-20T11:50:23;5.53;;;1.13;;
71104;SDS011;58760;48.716;8.962;2023-12-20T11:52:49;6.03;;;0.93;;
71104;SDS011;58760;48.716;8.962;2023-12-20T11:55:16;8.60;;;1.30;;
71104;SDS011;58760;48.716;8.962;2023-12-20T11:57:42;6.30;;;1.15;;
71104;SDS011;58760;48.716;8.962;2023-12-20T12:00:08;5.00;;;1.00;;
71104;SDS011;58760;48.716;8.962;2023-12-20T12:02:34;10.40;;;1.40;;
71104;SDS011;58760;48.716;8.962;2023-12-20T12:04:59;5.57;;;1.20;;
71104;SDS011;58760;48.716;8.962;2023-12-20T12:07:25;7.03;;;1.30;;
71104;SDS011;58760;48.716;8.962;2023-12-20T12:09:50;5.00;;;1.00;;
71104;SDS011;58760;48.716;8.962;2023-12-20T12:12:16;5.70;;;1.45;;
71104;SDS011;58760;48.716;8.962;2023-12-20T12:14:43;6.68;;;1.30;;
71104;SDS011;58760;48.716;8.962;2023-12-20T12:17:10;4.55;;;1.15;;
71104;SDS011;58760;48.716;8.962;2023-12-20T12:19:42;4.75;;;1.02;;
71104;SDS011;58760;48.716;8.962;2023-12-20T12:22:09;4.40;;;1.23;;
71104;SDS011;58760;48.716;8.962;2023-12-20T12:24:41;4.32;;;0.93;;
71104;SDS011;58760;48.716;8.962;2023-12-20T12:27:11;5.35;;;1.50;;
71104;SDS011;58760;48.716;8.962;2023-12-20T12:29:37;5.93;;;1.05;;
71104;SDS011;58760;48.716;8.962;2023-12-20T12:32:06;6.47;;;1.05;;
71104;SDS011;58760;48.716;8.962;2023-12-20T12:34:32;6.65;;;1.20;;
71104;SDS011;58760;48.716;8.962;2023-12-20T12:36:59;4.00;;;1.00;;
71104;SDS011;58760;48.716;8.962;2023-12-20T12:39:25;5.07;;;0.98;;
71104;SDS011;58760;48.716;8.962;2023-12-20T12:41:51;6.82;;;1.20;;
71104;SDS011;58760;48.716;8.962;2023-12-20T12:44:17;2.45;;;0.90;;
71104;SDS011;58760;48.716;8.962;2023-12-20T12:46:43;6.28;;;0.90;;
71104;SDS011;58760;48.716;8.962;2023-12-20T12:49:12;7.75;;;1.10;;
71104;SDS011;58760;48.716;8.962;2023-12-20T12:51:37;4.45;;;0.95;;
71104;SDS011;58760;48.716;8.962;2023-12-20T12:54:03;7.50;;;1.50;;
71104;SDS011;58760;48.716;8.962;2023-12-20T12:56:29;9.95;;;1.30;;
71104;SDS011;58760;48.716;8.962;2023-12-20T12:58:54;6.43;;;1.08;;
71104;SDS011;58760;48.716;8.962;2023-12-20T13:01:20;3.22;;;0.80;;
71104;SDS011;58760;48.716;8.962;2023-12-20T13:03:45;4.65;;;1.00;;
71104;SDS011;58760;48.716;8.962;2023-12-20T13:06:11;6.18;;;0.90;;
71104;SDS011;58760;48.716;8.962;2023-12-20T13:08:37;7.30;;;1.00;;
71104;SDS011;58760;48.716;8.962;2023-12-20T13:11:02;4.97;;;0.85;;
71104;SDS011;58760;48.716;8.962;2023-12-20T13:13:29;5.57;;;1.10;;
71104;SDS011;58760;48.716;8.962;2023-12-20T13:15:55;4.55;;;1.00;;
71104;SDS011;58760;48.716;8.962;2023-12-20T13:18:22;2.83;;;1.10;;
71104;SDS011;58760;48.716;8.962;2023-12-20T13:20:47;4.10;;;0.90;;
71104;SDS011;58760;48.716;8.962;2023-12-20T13:23:13;6.68;;;0.95;;
71104;SDS011;58760;48.716;8.962;2023-12-20T13:25:39;5.25;;;1.10;;
71104;SDS011;58760;48.716;8.962;2023-12-20T13:28:05;3.33;;;0.90;;
71104;SDS011;58760;48.716;8.962;2023-12-20T13:30:30;4.80;;;1.00;;
71104;SDS011;58760;48.716;8.962;2023-12-20T13:32:56;5.15;;;0.95;;
71104;SDS011;58760;48.716;8.962;2023-12-20T13:35:21;5.78;;;0.88;;
71104;SDS011;58760;48.716;8.962;2023-12-20T13:37:47;3.10;;;0.80;;
71104;SDS011;58760;48.716;8.962;2023-12-20T13:40:12;6.57;;;0.90;;
71104;SDS011;58760;48.716;8.962;2023-12-20T13:42:40;2.63;;;0.80;;
71104;SDS011;58760;48.716;8.962;2023-12-20T13:45:06;3.85;;;0.75;;
71104;SDS011;58760;48.716;8.962;2023-12-20T13:47:32;4.57;;;1.00;;
71104;SDS011;58760;48.716;8.962;2023-12-20T13:49:58;5.35;;;1.20;;
71104;SDS011;58760;48.716;8.962;2023-12-20T13:52:23;5.13;;;1.13;;
71104;SDS011;58760;48.716;8.962;2023-12-20T13:54:49;6.25;;;1.15;;
71104;SDS011;58760;48.716;8.962;2023-12-20T13:57:14;5.90;;;1.10;;
71104;SDS011;58760;48.716;8.962;2023-12-20T13:59:40;5.25;;;1.20;;
71104;SDS011;58760;48.716;8.962;2023-12-20T14:02:05;3.95;;;1.05;;
71104;SDS011;58760;48.716;8.962;2023-12-20T14:04:31;6.72;;;1.08;;
71104;SDS011;58760;48.716;8.962;2023-12-20T14:06:56;10.73;;;1.17;;
71104;SDS011;58760;48.716;8.962;2023-12-20T14:09:22;7.32;;;1.10;;
71104;SDS011;58760;48.716;8.962;2023-12-20T14:11:48;3.60;;;1.10;;
71104;SDS011;58760;48.716;8.962;2023-12-20T14:14:13;6.13;;;1.10;;
71104;SDS011;58760;48.716;8.962;2023-12-20T14:16:38;5.70;;;0.98;;
71104;SDS011;58760;48.716;8.962;2023-12-20T14:19:04;6.35;;;1.23;;
71104;SDS011;58760;48.716;8.962;2023-12-20T14:21:32;4.80;;;1.00;;
71104;SDS011;58760;48.716;8.962;2023-12-20T14:23:57;7.10;;;1.23;;
71104;SDS011;58760;48.716;8.962;2023-12-20T14:26:23;5.32;;;1.00;;
71104;SDS011;58760;48.716;8.962;2023-12-20T14:28:49;6.05;;;1.25;;
71104;SDS011;58760;48.716;8.962;2023-12-20T14:31:14;6.40;;;0.98;;
71104;SDS011;58760;48.716;8.962;2023-12-20T14:33:39;4.63;;;0.90;;
71104;SDS011;58760;48.716;8.962;2023-12-20T14:36:07;6.63;;;1.10;;
71104;SDS011;58760;48.716;8.962;2023-12-20T14:38:33;3.92;;;0.90;;
71104;SDS011;58760;48.716;8.962;2023-12-20T14:40:58;3.92;;;0.70;;
71104;SDS011;58760;48.716;8.962;2023-12-20T14:43:23;5.35;;;1.02;;
71104;SDS011;58760;48.716;8.962;2023-12-20T14:45:50;6.40;;;1.13;;
71104;SDS011;58760;48.716;8.962;2023-12-20T14:48:16;5.13;;;1.20;;
71104;SDS011;58760;48.716;8.962;2023-12-20T14:50:41;4.70;;;1.00;;
71104;SDS011;58760;48.716;8.962;2023-12-20T14:53:07;4.35;;;0.90;;
71104;SDS011;58760;48.716;8.962;2023-12-20T14:55:33;3.95;;;0.85;;
71104;SDS011;58760;48.716;8.962;2023-12-20T14:57:59;6.20;;;0.90;;